Time;durP1;ratioP1;P1;durP2;ratioP2;P2;SDS_P1;SDS_P2;PMS_P1;PMS_P2;Temp;Humidity;BMP_temperature;BMP_pressure;BME280_temperature;BME280_humidity;BME280_pressure;Samples;Min_cycle;Max_cycle;Signal;HPM_P1;HPM_P2
2022/10/13 00:01:21;;;;;;;14.00;9.10;;;12.40;1.00;;;;;;6244613;23;20187;-83
2022/10/13 00:03:55;;;;;;;16.33;8.90;;;12.40;1.00;;;;;;6244696;22;20248;-83
2022/10/13 00:06:25;;;;;;;14.17;8.90;;;12.40;1.00;;;;;;6244312;23;20360;-83
2022/10/13 00:08:56;;;;;;;14.80;9.40;;;12.40;1.00;;;;;;6244339;23;20379;-84
2022/10/13 00:11:26;;;;;;;13.40;9.40;;;12.40;1.00;;;;;;6244456;23;20371;-83
2022/10/13 00:13:59;;;;;;;23.33;9.10;;;12.40;1.00;;;;;;6218155;23;20431;-83
2022/10/13 00:16:26;;;;;;;15.17;9.43;;;12.50;54.50;;;;;;6246879;23;20410;-83
2022/10/13 00:18:52;;;;;;;15.10;8.20;;;12.50;53.70;;;;;;6246035;23;20458;-84
2022/10/13 00:21:25;;;;;;;12.00;8.30;;;12.50;99.90;;;;;;6246600;23;20380;-83
2022/10/13 00:23:54;;;;;;;14.10;8.73;;;12.50;99.90;;;;;;6219282;23;20576;-83
2022/10/13 00:26:27;;;;;;;14.87;8.90;;;12.50;99.90;;;;;;6219420;23;20388;-83
2022/10/13 00:28:59;;;;;;;18.57;10.20;;;12.50;99.90;;;;;;6246176;23;20807;-83
2022/10/13 00:31:39;;;;;;;11.60;8.77;;;12.50;99.90;;;;;;6246532;23;20352;-83
2022/10/13 00:34:12;;;;;;;17.23;8.80;;;12.50;1.00;;;;;;6219228;23;20572;-83
2022/10/13 00:36:45;;;;;;;15.00;9.37;;;12.50;1.00;;;;;;6246080;23;20391;-83
2022/10/13 00:39:12;;;;;;;12.47;8.90;;;12.60;1.00;;;;;;6219102;23;20411;-81
2022/10/13 00:41:53;;;;;;;13.53;8.50;;;12.60;1.00;;;;;;6219255;23;20479;-83
2022/10/13 00:45:13;;;;;;;17.80;8.40;;;12.60;1.00;;;;;;6245285;22;20744;-83
2022/10/13 00:47:48;;;;;;;14.43;8.97;;;12.70;1.00;;;;;;6244576;23;20367;-83
2022/10/13 00:50:30;;;;;;;11.03;7.53;;;12.60;99.90;;;;;;6244870;23;20405;-83
2022/10/13 00:52:58;;;;;;;14.60;9.40;;;12.70;1.00;;;;;;6245383;23;20387;-83
2022/10/13 00:55:39;;;;;;;12.27;8.63;;;12.70;1.00;;;;;;6245400;22;20400;-83
2022/10/13 00:58:18;;;;;;;13.80;8.53;;;12.70;1.00;;;;;;6244307;23;20901;-83
2022/10/13 01:00:53;;;;;;;12.27;9.10;;;12.70;1.00;;;;;;6245442;23;20359;-83
2022/10/13 01:03:23;;;;;;;14.00;8.70;;;12.70;1.00;;;;;;6245694;22;20433;-83
2022/10/13 01:06:03;;;;;;;12.23;8.47;;;12.70;1.00;;;;;;6244999;23;20530;-83
2022/10/13 01:08:32;;;;;;;13.80;8.10;;;12.70;53.50;;;;;;6246591;23;20678;-83
2022/10/13 01:11:34;;;;;;;12.00;8.17;;;12.70;62.70;;;;;;6218669;23;20423;-83
2022/10/13 01:14:37;;;;;;;12.63;8.40;;;12.70;99.90;;;;;;6245995;22;20398;-83
2022/10/13 01:17:22;;;;;;;15.87;8.50;;;12.70;99.90;;;;;;6219371;23;20406;-84
2022/10/13 01:20:43;;;;;;;12.27;8.70;;;12.70;99.90;;;;;;6246004;23;20369;-83
2022/10/13 01:23:51;;;;;;;14.50;8.67;;;12.70;99.90;;;;;;6246004;23;20348;-83
2022/10/13 01:27:13;;;;;;;13.50;9.03;;;12.70;99.90;;;;;;6244627;23;20376;-83
2022/10/13 01:29:57;;;;;;;14.07;7.30;;;12.70;99.90;;;;;;6123491;23;20906;-83
2022/10/13 01:32:53;;;;;;;16.20;9.23;;;12.70;99.90;;;;;;6127679;23;20371;-84
2022/10/13 01:35:51;;;;;;;15.77;9.40;;;12.70;99.90;;;;;;6245146;22;20438;-83
2022/10/13 01:38:25;;;;;;;11.53;8.80;;;12.60;99.90;;;;;;6246122;23;20755;-83
2022/10/13 01:41:08;;;;;;;15.00;8.40;;;12.60;99.90;;;;;;6245709;23;20363;-83
2022/10/13 01:43:42;;;;;;;10.00;7.80;;;12.60;1.00;;;;;;6219041;22;20427;-81
2022/10/13 01:46:30;;;;;;;11.60;8.67;;;12.60;1.00;;;;;;6245337;23;20367;-83
2022/10/13 01:49:00;;;;;;;14.73;8.93;;;12.60;1.00;;;;;;6245683;23;20360;-82
2022/10/13 01:51:34;;;;;;;15.80;8.93;;;12.60;1.00;;;;;;6245197;23;20391;-83
2022/10/13 01:54:03;;;;;;;12.43;8.53;;;12.60;1.00;;;;;;6246883;22;20423;-83
2022/10/13 01:56:31;;;;;;;18.00;10.07;;;12.60;1.00;;;;;;6244869;23;20761;-83
2022/10/13 01:59:00;;;;;;;16.73;9.23;;;12.60;1.00;;;;;;6218508;23;20428;-83
2022/10/13 02:01:49;;;;;;;10.17;6.87;;;12.60;1.00;;;;;;6245643;23;20376;-83
2022/10/13 02:04:48;;;;;;;11.50;8.23;;;12.60;1.00;;;;;;6243567;22;20450;-83
2022/10/13 02:07:28;;;;;;;16.20;8.83;;;12.60;1.00;;;;;;6218483;23;20423;-84
2022/10/13 02:10:26;;;;;;;20.70;8.50;;;12.60;1.00;;;;;;6217618;23;20386;-83
2022/10/13 02:13:30;;;;;;;13.80;9.10;;;12.50;1.00;;;;;;6178685;23;20776;-84
2022/10/13 02:16:02;;;;;;;15.53;8.07;;;12.50;99.90;;;;;;6204267;23;20422;-83
2022/10/13 02:18:33;;;;;;;16.63;9.57;;;12.50;91.70;;;;;;6245100;23;20795;-83
2022/10/13 02:21:00;;;;;;;11.10;8.17;;;12.50;99.90;;;;;;6245000;23;20546;-83
2022/10/13 02:23:26;;;;;;;15.83;8.60;;;12.40;99.90;;;;;;6244117;22;20387;-83
2022/10/13 02:25:58;;;;;;;13.13;9.43;;;12.40;99.90;;;;;;6244877;23;20458;-83
2022/10/13 02:28:33;;;;;;;17.93;10.80;;;12.40;99.90;;;;;;6245237;23;20381;-83
2022/10/13 02:31:01;;;;;;;19.63;8.20;;;12.40;1.00;;;;;;6245221;23;20380;-83
2022/10/13 02:33:31;;;;;;;15.70;8.53;;;12.40;1.00;;;;;;6243782;22;20772;-83
2022/10/13 02:35:59;;;;;;;15.87;8.00;;;12.40;1.00;;;;;;6245653;23;20406;-83
2022/10/13 02:38:25;;;;;;;10.97;8.13;;;12.40;1.00;;;;;;6242152;23;20454;-83
2022/10/13 02:40:51;;;;;;;12.50;8.20;;;12.40;1.00;;;;;;6244952;23;20376;-83
2022/10/13 02:43:16;;;;;;;12.77;8.60;;;12.50;1.00;;;;;;6244471;22;20145;-83
2022/10/13 02:45:42;;;;;;;16.97;9.53;;;12.50;1.00;;;;;;6244861;23;20164;-83
2022/10/13 02:48:15;;;;;;;12.33;7.77;;;12.50;1.00;;;;;;6245068;23;20207;-84
2022/10/13 02:50:47;;;;;;;13.20;8.33;;;12.50;50.50;;;;;;6244302;23;20363;-83
2022/10/13 02:53:15;;;;;;;17.07;9.17;;;12.50;59.40;;;;;;6218675;22;20407;-83
2022/10/13 02:55:43;;;;;;;14.40;9.40;;;12.50;93.20;;;;;;6242787;23;20380;-84
2022/10/13 02:58:08;;;;;;;18.80;9.00;;;12.50;99.90;;;;;;6217999;23;20431;-83
2022/10/13 03:00:38;;;;;;;15.53;8.33;;;12.60;99.90;;;;;;6243780;23;20371;-83
2022/10/13 03:03:06;;;;;;;17.53;8.60;;;12.60;99.90;;;;;;6218239;23;20562;-83
2022/10/13 03:05:32;;;;;;;12.23;8.80;;;12.60;99.90;;;;;;6217995;23;20407;-83
2022/10/13 03:08:10;;;;;;;14.70;8.33;;;12.60;77.60;;;;;;6243737;23;20380;-83
2022/10/13 03:10:38;;;;;;;11.57;7.67;;;12.60;60.30;;;;;;6244525;23;20925;-83
2022/10/13 03:13:03;;;;;;;21.53;9.70;;;12.60;79.30;;;;;;6217352;23;20431;-83
2022/10/13 03:15:34;;;;;;;15.13;8.43;;;12.60;7.40;;;;;;6245028;22;20399;-83
2022/10/13 03:17:59;;;;;;;12.33;8.07;;;12.60;10.10;;;;;;6243973;23;20212;-84
2022/10/13 03:20:27;;;;;;;18.90;8.50;;;12.60;1.00;;;;;;6245158;23;20372;-83
2022/10/13 03:22:55;;;;;;;15.47;8.10;;;12.60;17.30;;;;;;6244989;23;20145;-83
2022/10/13 03:25:21;;;;;;;17.53;8.73;;;12.60;13.60;;;;;;6217870;23;20399;-83
2022/10/13 03:27:48;;;;;;;11.20;8.40;;;12.60;25.60;;;;;;6244370;23;20376;-84
2022/10/13 03:30:14;;;;;;;13.43;9.07;;;12.70;46.00;;;;;;6245407;23;20208;-83
2022/10/13 03:32:42;;;;;;;14.50;8.80;;;12.70;57.30;;;;;;6244341;23;20376;-83
2022/10/13 03:35:08;;;;;;;12.33;9.30;;;12.70;58.70;;;;;;6217882;23;20187;-83
2022/10/13 03:37:38;;;;;;;14.00;8.27;;;12.60;47.10;;;;;;6244546;23;20757;-83
2022/10/13 03:40:05;;;;;;;15.10;8.40;;;12.60;67.10;;;;;;6244885;23;20455;-83
2022/10/13 03:42:37;;;;;;;13.03;8.90;;;12.60;55.20;;;;;;6244898;23;20459;-83
2022/10/13 03:45:05;;;;;;;15.03;8.70;;;12.60;52.90;;;;;;6218559;23;20399;-83
2022/10/13 03:47:34;;;;;;;14.83;9.07;;;12.60;15.40;;;;;;6244730;23;20375;-83
2022/10/13 03:50:07;;;;;;;13.47;8.80;;;12.60;35.10;;;;;;6217071;23;20452;-83
2022/10/13 03:52:34;;;;;;;16.00;9.03;;;12.60;3.00;;;;;;6217326;23;20479;-83
2022/10/13 03:55:03;;;;;;;14.70;7.87;;;12.60;20.90;;;;;;6217611;23;20411;-83
2022/10/13 03:57:31;;;;;;;14.93;9.00;;;12.60;70.00;;;;;;6244181;23;20450;-83
2022/10/13 04:00:09;;;;;;;13.63;8.60;;;12.60;86.20;;;;;;6244547;23;20357;-84
2022/10/13 04:02:37;;;;;;;13.60;9.20;;;12.50;99.90;;;;;;6244624;23;20696;-83
2022/10/13 04:05:12;;;;;;;13.20;9.73;;;12.50;99.90;;;;;;6244603;22;20675;-83
2022/10/13 04:07:46;;;;;;;16.20;9.00;;;12.50;99.90;;;;;;6216920;23;20374;-83
2022/10/13 04:10:16;;;;;;;13.50;9.37;;;12.50;99.90;;;;;;6244349;23;20895;-83
2022/10/13 04:12:42;;;;;;;12.73;8.67;;;12.50;99.90;;;;;;6215413;23;20388;-83
2022/10/13 04:15:36;;;;;;;;;;;;;;;;;;;;;
2022/10/13 04:18:01;;;;;;;11.53;8.03;;;12.50;99.90;;;;;;6244498;23;20216;-83
2022/10/13 04:20:37;;;;;;;18.57;9.07;;;12.50;99.90;;;;;;6217125;23;20455;-83
2022/10/13 04:23:10;;;;;;;12.60;7.90;;;12.50;99.90;;;;;;6243829;23;20144;-83
2022/10/13 04:25:39;;;;;;;8.97;7.50;;;12.50;99.90;;;;;;6243687;22;20428;-83
2022/10/13 04:28:06;;;;;;;13.60;8.37;;;12.50;99.90;;;;;;6243162;23;20944;-83
2022/10/13 04:30:37;;;;;;;11.20;8.00;;;12.50;99.90;;;;;;6242938;23;20696;-83
2022/10/13 04:33:03;;;;;;;7.70;6.27;;;12.50;99.90;;;;;;6244855;23;20363;-83
2022/10/13 04:35:31;;;;;;;13.47;7.87;;;12.50;99.90;;;;;;6243222;22;20399;-83
2022/10/13 04:38:04;;;;;;;19.43;11.93;;;12.60;99.90;;;;;;6244158;23;20180;-83
2022/10/13 04:40:37;;;;;;;12.37;8.07;;;12.60;99.90;;;;;;6241938;23;20743;-83
2022/10/13 04:43:02;;;;;;;16.10;7.97;;;12.60;99.90;;;;;;6243703;23;20360;-83
2022/10/13 04:45:30;;;;;;;16.93;7.67;;;12.60;99.90;;;;;;6241871;22;20487;-83
2022/10/13 04:47:56;;;;;;;13.80;7.40;;;12.60;99.90;;;;;;6217638;23;20153;-83
2022/10/13 04:50:49;;;;;;;17.00;8.00;;;12.60;99.90;;;;;;6216895;23;21016;-83
2022/10/13 04:53:47;;;;;;;10.07;8.10;;;12.70;99.90;;;;;;6217307;22;20153;-83
2022/10/13 04:56:31;;;;;;;;;;;;;;;;;;;;;
2022/10/13 04:59:10;;;;;;;;;;;;;;;;;;;;;
2022/10/13 05:02:09;;;;;;;;;;;;;;;;;;;;;
2022/10/13 05:05:11;;;;;;;10.03;7.30;;;12.80;1.00;;;;;;6238282;22;20457;-83
2022/10/13 05:07:51;;;;;;;;;;;;;;;;;;;;;
2022/10/13 05:10:59;;;;;;;;;;;;;;;;;;;;;
2022/10/13 05:14:23;;;;;;;;;;;;;;;;;;;;;
2022/10/13 05:20:28;;;;;;;12.40;7.43;;;12.70;1.00;;;;;;6224582;23;20391;-83
2022/10/13 05:22:56;;;;;;;17.77;7.97;;;12.80;1.00;;;;;;6245614;23;20361;-83
2022/10/13 05:26:32;;;;;;;;;;;;;;;;;;;;;
2022/10/13 05:29:17;;;;;;;;;;;;;;;;;;;;;
2022/10/13 05:31:56;;;;;;;;;;;;;;;;;;;;;
2022/10/13 05:34:32;;;;;;;11.40;7.50;;;12.70;1.00;;;;;;6245772;22;20467;-83
2022/10/13 05:37:28;;;;;;;;;;;;;;;;;;;;;
2022/10/13 05:40:50;;;;;;;15.10;8.13;;;12.70;52.20;;;;;;6246107;23;20459;-82
2022/10/13 05:46:57;;;;;;;;;;;;;;;;;;;;;
2022/10/13 05:49:41;;;;;;;;;;;;;;;;;;;;;
2022/10/13 05:52:49;;;;;;;;;;;;;;;;;;;;;
2022/10/13 05:55:39;;;;;;;14.23;8.50;;;12.70;99.90;;;;;;6241166;22;20475;-83
2022/10/13 05:58:27;;;;;;;15.23;8.93;;;12.70;99.90;;;;;;6244834;23;20431;-83
2022/10/13 06:01:33;;;;;;;14.13;8.40;;;12.70;99.90;;;;;;6246496;23;20383;-83
2022/10/13 06:07:08;;;;;;;;;;;;;;;;;;;;;
2022/10/13 06:16:45;;;;;;;;;;;;;;;;;;;;;
2022/10/13 06:19:34;;;;;;;13.40;9.33;;;12.70;99.90;;;;;;6245076;23;20506;-84
2022/10/13 06:22:04;;;;;;;15.43;9.33;;;12.80;99.90;;;;;;6219872;23;20842;-83
2022/10/13 06:24:42;;;;;;;13.50;8.67;;;12.80;99.90;;;;;;6246196;22;20445;-83
2022/10/13 06:27:11;;;;;;;15.60;8.90;;;12.80;99.90;;;;;;6246440;23;20379;-84
2022/10/13 06:29:37;;;;;;;16.70;9.57;;;12.90;99.90;;;;;;6218607;23;20721;-84
2022/10/13 06:32:05;;;;;;;16.17;10.30;;;12.90;99.90;;;;;;6246316;23;20376;-84
2022/10/13 06:34:32;;;;;;;15.93;9.80;;;13.00;99.90;;;;;;6219981;23;20176;-83
2022/10/13 06:37:07;;;;;;;;;;;;;;;;;;;;;
2022/10/13 06:46:10;;;;;;;20.60;10.50;;;13.40;1.00;;;;;;6222384;23;20400;-84
2022/10/13 06:49:33;;;;;;;14.00;9.50;;;13.50;99.90;;;;;;6226899;23;20398;-83
2022/10/13 06:52:50;;;;;;;;;;;;;;;;;;;;;
2022/10/13 07:03:08;;;;;;;;;;;;;;;;;;;;;
2022/10/13 07:09:19;;;;;;;18.30;10.63;;;14.00;1.00;;;;;;6234463;23;20411;-83
2022/10/13 07:18:39;;;;;;;20.50;10.27;;;14.30;99.90;;;;;;6226230;23;20452;-84
2022/10/13 07:21:47;;;;;;;13.03;9.93;;;14.40;99.90;;;;;;6231629;23;20728;-84
2022/10/13 07:27:39;;;;;;;19.83;10.90;;;14.70;1.00;;;;;;6218592;23;20440;-82
2022/10/13 07:30:17;;;;;;;14.03;9.50;;;14.90;99.90;;;;;;6244398;23;20378;-84
2022/10/13 07:33:29;;;;;;;24.10;10.80;;;14.90;99.90;;;;;;6215891;23;20399;-84
2022/10/13 07:36:45;;;;;;;;;;;;;;;;;;;;;
2022/10/13 07:44:37;;;;;;;13.43;9.20;;;14.90;1.00;;;;;;6232243;22;20405;-84
2022/10/13 07:47:36;;;;;;;;;;;;;;;;;;;;;
2022/10/13 07:50:42;;;;;;;15.00;8.90;;;14.90;1.00;;;;;;6243553;23;20525;-84
2022/10/13 07:53:40;;;;;;;;;;;;;;;;;;;;;
2022/10/13 08:02:38;;;;;;;;;;;;;;;;;;;;;
2022/10/13 08:09:05;;;;;;;;;;;;;;;;;;;;;
2022/10/13 08:16:00;;;;;;;;;;;;;;;;;;;;;
2022/10/13 08:18:47;;;;;;;;;;;;;;;;;;;;;
2022/10/13 08:25:29;;;;;;;;;;;;;;;;;;;;;
2022/10/13 08:32:19;;;;;;;15.53;9.53;;;16.80;99.90;;;;;;6093533;23;20389;-82
2022/10/13 08:38:27;;;;;;;14.57;9.90;;;16.90;99.90;;;;;;6193737;23;20807;-81
2022/10/13 08:41:48;;;;;;;;;;;;;;;;;;;;;
2022/10/13 08:44:49;;;;;;;14.43;9.07;;;17.50;99.90;;;;;;6217447;23;20454;-83
2022/10/13 08:51:06;;;;;;;;;;;;;;;;;;;;;
2022/10/13 08:54:19;;;;;;;;;;;;;;;;;;;;;
2022/10/13 08:57:50;;;;;;;;;;;;;;;;;;;;;
2022/10/13 09:00:44;;;;;;;;;;;;;;;;;;;;;
2022/10/13 09:03:30;;;;;;;12.17;7.63;;;20.50;1.00;;;;;;6216731;23;20907;-81
2022/10/13 09:06:27;;;;;;;16.67;8.70;;;21.50;99.90;;;;;;6217310;23;20400;-82
2022/10/13 09:09:34;;;;;;;13.17;8.37;;;22.20;99.90;;;;;;6216784;23;20380;-82
2022/10/13 09:12:25;;;;;;;15.00;7.60;;;23.10;99.90;;;;;;6216711;23;20387;-83
2022/10/13 09:18:29;;;;;;;9.93;6.53;;;24.10;99.90;;;;;;6205918;23;20459;-81
2022/10/13 09:21:46;;;;;;;14.97;7.13;;;23.90;99.90;;;;;;6215714;23;20386;-82
2022/10/13 09:24:28;;;;;;;8.10;6.60;;;23.50;99.90;;;;;;6214982;23;20774;-82
2022/10/13 09:27:18;;;;;;;11.40;6.63;;;23.00;99.90;;;;;;6215937;23;20380;-82
2022/10/13 09:30:19;;;;;;;;;;;;;;;;;;;;;
2022/10/13 09:33:22;;;;;;;11.53;6.80;;;22.20;99.90;;;;;;6208818;23;20469;-81
2022/10/13 09:36:06;;;;;;;12.63;6.47;;;21.60;99.90;;;;;;6214967;23;20416;-81
2022/10/13 09:38:38;;;;;;;15.50;6.67;;;21.20;99.90;;;;;;6216255;23;20415;-82
2022/10/13 09:41:23;;;;;;;18.37;7.90;;;20.80;99.90;;;;;;6216363;23;20503;-82
2022/10/13 09:44:04;;;;;;;;;;;;;;;;;;;;;
2022/10/13 09:49:53;;;;;;;;;;;;;;;;;;;;;
2022/10/13 09:52:45;;;;;;;7.77;5.97;;;19.60;99.90;;;;;;6217010;23;20442;-82
2022/10/13 09:55:35;;;;;;;10.83;6.37;;;19.50;99.90;;;;;;6216668;23;20399;-82
2022/10/13 09:58:13;;;;;;;13.87;7.03;;;19.50;99.90;;;;;;6215854;23;20442;-83
2022/10/13 10:04:09;;;;;;;;;;;;;;;;;;;;;
2022/10/13 10:06:48;;;;;;;13.53;6.50;;;19.90;99.90;;;;;;6215766;23;20478;-81
2022/10/13 10:10:04;;;;;;;;;;;;;;;;;;;;;
2022/10/13 10:42:17;;;;;;;;;;;;;;;;;;;;;
2022/10/13 10:45:32;;;;;;;;;;;;;;;;;;;;;
2022/10/13 11:19:30;;;;;;;14.67;9.20;;;18.00;99.90;;;;;;6259130;22;20937;-79
2022/10/13 11:21:56;;;;;;;10.13;7.30;;;17.90;99.90;;;;;;6277347;22;20448;-79
2022/10/13 11:24:42;;;;;;;11.27;7.27;;;17.80;1.00;;;;;;6276741;22;20385;-79
2022/10/13 11:27:09;;;;;;;10.60;7.50;;;17.80;1.00;;;;;;6275066;22;20354;-79
2022/10/13 11:29:53;;;;;;;11.40;7.27;;;17.70;1.00;;;;;;6249346;22;20394;-80
2022/10/13 11:35:20;;;;;;;17.50;9.80;;;17.80;1.00;;;;;;6276534;22;20396;-79
2022/10/13 11:38:01;;;;;;;13.47;9.17;;;17.90;1.00;;;;;;6250428;22;20719;-81
2022/10/13 11:40:35;;;;;;;12.20;8.20;;;18.00;41.70;;;;;;6248763;22;20378;-81
2022/10/13 11:43:22;;;;;;;19.33;11.43;;;18.10;90.20;;;;;;6277465;22;20386;-81
2022/10/13 11:46:45;;;;;;;17.50;10.57;;;18.40;99.90;;;;;;6247167;22;20412;-81
2022/10/13 11:49:31;;;;;;;13.13;8.43;;;18.60;82.60;;;;;;6169437;22;20385;-81
2022/10/13 11:53:06;;;;;;;16.20;10.23;;;18.80;1.00;;;;;;6278068;22;20352;-81
2022/10/13 11:56:28;;;;;;;10.93;7.77;;;19.00;1.00;;;;;;6275284;22;20711;-81
2022/10/13 12:09:16;;;;;;;14.70;7.90;;;20.30;1.00;;;;;;6251391;22;20384;-81
2022/10/13 12:16:36;;;;;;;;;;;;;;;;;;;;;
2022/10/13 12:26:53;;;;;;;;;;;;;;;;;;;;;
2022/10/13 12:30:01;;;;;;;;;;;;;;;;;;;;;
2022/10/13 12:33:10;;;;;;;8.43;6.53;;;22.60;99.90;;;;;;6126170;23;20473;-81
2022/10/13 12:39:48;;;;;;;9.73;6.10;;;22.00;99.90;;;;;;6243924;22;20754;-81
2022/10/13 12:42:42;;;;;;;12.37;7.37;;;21.50;99.90;;;;;;6209975;22;20400;-81
2022/10/13 12:48:50;;;;;;;14.63;8.20;;;21.00;99.90;;;;;;6256506;22;20473;-81
2022/10/13 12:51:39;;;;;;;;;;;;;;;;;;;;;
2022/10/13 12:55:01;;;;;;;;;;;;;;;;;;;;;
2022/10/13 13:01:26;;;;;;;;;;;;;;;;;;;;;
2022/10/13 13:04:21;;;;;;;11.63;9.40;;;19.60;99.90;;;;;;6266046;22;20975;-82
2022/10/13 13:07:03;;;;;;;12.63;10.20;;;19.30;99.90;;;;;;6251139;22;20427;-82
2022/10/13 13:09:38;;;;;;;14.57;10.37;;;19.10;1.00;;;;;;6278326;22;20432;-81
2022/10/13 13:12:11;;;;;;;15.90;10.73;;;18.90;1.00;;;;;;6276822;22;20386;-82
2022/10/13 13:14:48;;;;;;;14.23;10.30;;;18.70;1.00;;;;;;6251696;22;20444;-81
2022/10/13 13:17:17;;;;;;;14.47;11.07;;;18.50;99.90;;;;;;6276933;22;20403;-81
2022/10/13 13:19:45;;;;;;;19.43;11.23;;;18.40;99.90;;;;;;6278182;22;20522;-82
2022/10/13 13:22:11;;;;;;;19.87;12.00;;;18.30;1.00;;;;;;6252742;22;20386;-82
2022/10/13 13:24:37;;;;;;;18.27;11.20;;;18.30;1.00;;;;;;6280582;22;20845;-81
2022/10/13 13:27:24;;;;;;;16.30;11.60;;;18.30;99.90;;;;;;6255375;22;20413;-82
2022/10/13 13:29:50;;;;;;;18.83;11.13;;;18.30;99.90;;;;;;6286402;22;20178;-80
2022/10/13 13:36:29;;;;;;;;;;;;;;;;;;;;;
2022/10/13 13:46:58;;;;;;;21.20;13.37;;;18.30;45.70;;;;;;6049629;23;20510;-81
2022/10/13 13:49:45;;;;;;;21.17;14.23;;;18.30;99.90;;;;;;6098799;23;20879;-81
2022/10/13 13:56:39;;;;;;;;;;;;;;;;;;;;;
2022/10/13 13:59:38;;;;;;;;;;;;;;;;;;;;;
2022/10/13 14:02:56;;;;;;;;;;;;;;;;;;;;;
2022/10/13 14:09:35;;;;;;;23.40;17.70;;;18.20;99.90;;;;;;6156096;23;20380;-82
2022/10/13 14:12:29;;;;;;;24.77;17.07;;;18.20;1.00;;;;;;6189433;22;20394;-81
2022/10/13 14:14:57;;;;;;;22.60;14.67;;;18.20;80.10;;;;;;6286978;22;20393;-81
2022/10/13 14:17:30;;;;;;;12.87;10.10;;;18.10;1.00;;;;;;6286476;22;20535;-80
2022/10/13 14:19:55;;;;;;;21.37;14.27;;;18.10;5.80;;;;;;6287674;22;20421;-80
2022/10/13 14:22:21;;;;;;;18.73;14.40;;;18.00;99.90;;;;;;6286145;22;20381;-80
2022/10/13 14:24:49;;;;;;;17.70;12.33;;;18.00;99.90;;;;;;6258969;22;20200;-81
2022/10/13 14:27:30;;;;;;;;;;;;;;;;;;;;;
2022/10/13 14:30:30;;;;;;;40.70;27.90;;;18.10;99.90;;;;;;6286639;22;20426;-81
2022/10/13 14:33:24;;;;;;;14.73;9.60;;;18.10;1.00;;;;;;6281333;22;20369;-83
2022/10/13 14:35:58;;;;;;;20.60;14.47;;;18.10;97.90;;;;;;6259343;22;20435;-80
2022/10/13 14:38:53;;;;;;;44.97;27.80;;;18.00;99.90;;;;;;6288327;22;20434;-82
2022/10/13 14:41:35;;;;;;;23.57;13.10;;;17.90;99.90;;;;;;6287733;22;20374;-80
2022/10/13 14:44:48;;;;;;;16.70;11.40;;;17.80;99.90;;;;;;6287796;22;20358;-83
2022/10/13 14:48:13;;;;;;;63.73;42.90;;;17.70;1.00;;;;;;6284885;22;20379;-80
2022/10/13 14:50:41;;;;;;;19.07;15.50;;;17.60;99.90;;;;;;6284605;22;20390;-80
2022/10/13 14:54:00;;;;;;;53.93;49.03;;;17.50;99.90;;;;;;6288148;22;20717;-82
2022/10/13 14:56:45;;;;;;;;;;;;;;;;;;;;;
2022/10/13 14:59:23;;;;;;;13.30;10.60;;;17.30;1.00;;;;;;6132435;23;20968;-83
2022/10/13 15:02:16;;;;;;;16.30;10.10;;;17.30;1.00;;;;;;6238322;22;20724;-81
2022/10/13 15:05:19;;;;;;;;;;;;;;;;;;;;;
2022/10/13 15:38:06;;;;;;;;;;;;;;;;;;;;;
2022/10/13 15:41:14;;;;;;;;;;;;;;;;;;;;;
2022/10/13 15:44:36;;;;;;;;;;;;;;;;;;;;;
2022/10/13 15:47:34;;;;;;;15.00;9.67;;;16.40;1.00;;;;;;6253019;23;20861;-83
2022/10/13 16:14:42;;;;;;;;;;;;;;;;;;;;;
2022/10/13 16:27:20;;;;;;;16.63;8.30;;;15.70;45.00;;;;;;6226284;23;20453;-84
2022/10/13 16:30:32;;;;;;;;;;;;;;;;;;;;;
2022/10/13 16:33:46;;;;;;;10.07;7.87;;;15.60;77.10;;;;;;6240555;23;20466;-85
2022/10/13 16:37:00;;;;;;;13.60;7.87;;;15.60;74.80;;;;;;6237889;23;20548;-85
2022/10/13 16:40:10;;;;;;;10.60;8.77;;;15.60;80.50;;;;;;6218987;23;20433;-84
2022/10/13 16:46:16;;;;;;;12.43;8.67;;;15.60;97.20;;;;;;6230215;23;20750;-85
2022/10/13 16:49:11;;;;;;;12.27;8.77;;;15.60;99.90;;;;;;6219217;23;20486;-84
2022/10/13 16:52:33;;;;;;;13.63;8.87;;;15.60;99.90;;;;;;6219387;23;20390;-84
2022/10/13 16:55:30;;;;;;;;;;;;;;;;;;;;;
2022/10/13 16:58:46;;;;;;;;;;;;;;;;;;;;;
2022/10/13 17:21:28;;;;;;;;;;;;;;;;;;;;;
2022/10/13 17:25:05;;;;;;;;;;;;;;;;;;;;;
2022/10/13 17:28:13;;;;;;;14.73;10.00;;;15.40;99.90;;;;;;6239877;23;20393;-85
2022/10/13 17:34:25;;;;;;;;;;;;;;;;;;;;;
2022/10/13 17:41:10;;;;;;;;;;;;;;;;;;;;;
2022/10/13 17:44:29;;;;;;;;;;;;;;;;;;;;;
2022/10/13 17:47:37;;;;;;;;;;;;;;;;;;;;;
2022/10/13 17:50:56;;;;;;;;;;;;;;;;;;;;;
2022/10/13 18:00:24;;;;;;;13.80;11.37;;;15.30;99.90;;;;;;6241920;23;20458;-85
2022/10/13 18:13:54;;;;;;;;;;;;;;;;;;;;;
2022/10/13 18:16:34;;;;;;;13.33;7.33;;;15.10;99.90;;;;;;6260738;23;20400;-86
2022/10/13 18:19:23;;;;;;;11.70;6.63;;;15.00;99.90;;;;;;6232675;23;20734;-85
2022/10/13 18:34:28;;;;;;;;;;;;;;;;;;;;;
2022/10/13 18:37:04;;;;;;;8.10;5.87;;;14.90;1.00;;;;;;6244423;23;20418;-86
2022/10/13 18:39:46;;;;;;;;;;;;;;;;;;;;;
2022/10/13 18:42:33;;;;;;;6.87;4.97;;;14.90;1.00;;;;;;6253855;23;20401;-86
2022/10/13 18:45:15;;;;;;;10.63;5.20;;;14.90;1.00;;;;;;6175646;23;20411;-85
2022/10/13 18:48:16;;;;;;;7.73;5.10;;;14.90;1.00;;;;;;6226216;23;20387;-85
2022/10/13 18:57:00;;;;;;;8.67;5.30;;;14.80;1.00;;;;;;6196212;23;20865;-85
2022/10/13 19:03:00;;;;;;;8.53;4.83;;;14.70;1.00;;;;;;6224112;23;20382;-85
2022/10/13 19:11:56;;;;;;;;;;;;;;;;;;;;;
2022/10/13 19:21:13;;;;;;;14.37;5.97;;;14.60;1.00;;;;;;6223178;23;20414;-88
2022/10/13 19:23:53;;;;;;;;;;;;;;;;;;;;;
2022/10/13 19:26:54;;;;;;;8.33;5.10;;;14.50;1.00;;;;;;6222418;23;20825;-85
2022/10/13 19:29:33;;;;;;;;;;;;;;;;;;;;;
2022/10/13 19:32:42;;;;;;;8.30;5.40;;;14.50;1.00;;;;;;6234804;23;20383;-86
2022/10/13 19:35:51;;;;;;;7.07;5.60;;;14.50;1.00;;;;;;6180746;23;20413;-84
2022/10/13 19:38:39;;;;;;;8.80;5.60;;;14.50;1.00;;;;;;6199787;23;20434;-84
2022/10/13 19:41:30;;;;;;;14.83;5.93;;;14.40;1.00;;;;;;6224417;23;20379;-85
2022/10/13 19:44:08;;;;;;;9.43;6.17;;;14.40;1.00;;;;;;6198550;23;20435;-86
2022/10/13 19:46:43;;;;;;;8.97;5.67;;;14.40;15.80;;;;;;6197655;23;20440;-85
2022/10/13 19:49:57;;;;;;;9.77;6.03;;;14.40;28.80;;;;;;6204570;23;20382;-88
2022/10/13 19:53:13;;;;;;;;;;;;;;;;;;;;;
2022/10/13 19:56:01;;;;;;;6.53;5.53;;;14.40;95.40;;;;;;6226904;23;20434;-85
2022/10/13 19:58:35;;;;;;;10.83;6.80;;;14.50;91.20;;;;;;6199237;23;20423;-84
2022/10/13 20:01:12;;;;;;;10.30;6.67;;;14.40;99.90;;;;;;6196408;23;20383;-83
2022/10/13 20:03:48;;;;;;;8.63;7.03;;;14.40;99.90;;;;;;6196223;23;20382;-83
2022/10/13 20:06:34;;;;;;;9.40;7.53;;;14.40;99.90;;;;;;6195131;23;20429;-85
2022/10/13 20:09:49;;;;;;;9.47;6.10;;;14.40;99.90;;;;;;6200006;23;20482;-86
2022/10/13 20:16:07;;;;;;;8.23;7.30;;;14.40;99.90;;;;;;6132483;23;20407;-85
2022/10/13 20:19:37;;;;;;;14.97;7.43;;;14.40;99.90;;;;;;6217371;23;20426;-86
2022/10/13 20:22:12;;;;;;;12.03;7.40;;;14.40;99.90;;;;;;6211098;23;20792;-85
2022/10/13 20:35:15;;;;;;;8.20;6.70;;;14.30;99.90;;;;;;6047978;23;20387;-86
2022/10/13 20:38:37;;;;;;;;;;;;;;;;;;;;;
2022/10/13 20:41:56;;;;;;;;;;;;;;;;;;;;;
2022/10/13 20:48:07;;;;;;;15.80;7.70;;;14.30;99.90;;;;;;6223427;23;20750;-87
2022/10/13 20:51:05;;;;;;;;;;;;;;;;;;;;;
2022/10/13 20:54:26;;;;;;;12.23;9.30;;;14.30;99.90;;;;;;6232024;23;20357;-90
2022/10/13 20:57:58;;;;;;;;;;;;;;;;;;;;;
2022/10/13 21:04:04;;;;;;;12.07;8.90;;;14.30;99.90;;;;;;6204910;23;20389;-87
2022/10/13 21:09:54;;;;;;;15.37;10.83;;;14.30;99.90;;;;;;6229686;23;20722;-87
2022/10/13 21:13:17;;;;;;;14.57;8.27;;;14.30;99.90;;;;;;6203061;23;20404;-90
2022/10/13 21:16:01;;;;;;;;;;;;;;;;;;;;;
2022/10/13 21:19:03;;;;;;;;;;;;;;;;;;;;;
2022/10/13 21:21:42;;;;;;;12.07;9.70;;;14.30;1.00;;;;;;6235216;23;20408;-86
2022/10/13 21:24:49;;;;;;;;;;;;;;;;;;;;;
2022/10/13 21:28:04;;;;;;;14.13;10.40;;;14.40;1.00;;;;;;6230472;23;20365;-86
2022/10/13 21:34:13;;;;;;;19.70;9.43;;;14.40;1.00;;;;;;6200873;23;20393;-86
2022/10/13 21:36:59;;;;;;;15.80;9.97;;;14.40;1.00;;;;;;6196116;23;20405;-86
2022/10/13 21:40:07;;;;;;;;;;;;;;;;;;;;;
2022/10/13 21:42:44;;;;;;;16.23;11.03;;;14.40;1.00;;;;;;6225434;23;20444;-86
2022/10/13 21:45:30;;;;;;;;;;;;;;;;;;;;;
2022/10/13 21:48:22;;;;;;;16.10;11.07;;;14.40;1.00;;;;;;6225878;23;20381;-85
2022/10/13 21:51:15;;;;;;;20.53;9.80;;;14.40;1.00;;;;;;6187440;23;20392;-86
2022/10/13 21:53:53;;;;;;;19.90;10.20;;;14.40;1.00;;;;;;6226916;23;20376;-86
2022/10/13 21:56:36;;;;;;;;;;;;;;;;;;;;;
2022/10/13 21:59:43;;;;;;;17.90;10.23;;;14.50;1.00;;;;;;6225686;23;20450;-84
2022/10/13 22:02:20;;;;;;;16.67;9.47;;;14.50;1.00;;;;;;6196836;23;20448;-85
2022/10/13 22:04:56;;;;;;;17.83;11.00;;;14.50;1.00;;;;;;6224670;23;20453;-85
2022/10/13 22:08:04;;;;;;;;;;;;;;;;;;;;;
2022/10/13 22:13:48;;;;;;;18.67;11.00;;;14.40;1.00;;;;;;6211655;23;20385;-85
2022/10/13 22:17:06;;;;;;;13.37;11.17;;;14.40;1.00;;;;;;6210811;23;20826;-85
2022/10/13 22:19:59;;;;;;;17.40;10.97;;;14.40;1.00;;;;;;6219840;23;20426;-85
2022/10/13 22:23:02;;;;;;;19.40;12.23;;;14.40;1.00;;;;;;6207928;23;20389;-86
2022/10/13 22:25:42;;;;;;;;;;;;;;;;;;;;;
2022/10/13 22:28:13;;;;;;;16.43;13.00;;;14.40;1.00;;;;;;6225057;23;20387;-86